sensor_id;sensor_type;location;lat;lon;timestamp;P1;durP1;ratioP1;P2;durP2;ratioP2
19891;SDS011;10108;50.142;8.724;2022-07-24T00:02:08;9.68;;;5.90;;
19891;SDS011;10108;50.142;8.724;2022-07-24T00:04:35;11.02;;;6.22;;
19891;SDS011;10108;50.142;8.724;2022-07-24T00:07:01;11.50;;;6.03;;
19891;SDS011;10108;50.142;8.724;2022-07-24T00:09:27;12.52;;;6.28;;
19891;SDS011;10108;50.142;8.724;2022-07-24T00:11:54;9.73;;;6.10;;
19891;SDS011;10108;50.142;8.724;2022-07-24T00:14:20;10.07;;;5.97;;
19891;SDS011;10108;50.142;8.724;2022-07-24T00:16:46;12.95;;;6.40;;
19891;SDS011;10108;50.142;8.724;2022-07-24T00:19:12;9.27;;;6.40;;
19891;SDS011;10108;50.142;8.724;2022-07-24T00:21:38;8.98;;;5.75;;
19891;SDS011;10108;50.142;8.724;2022-07-24T00:24:05;11.50;;;6.10;;
19891;SDS011;10108;50.142;8.724;2022-07-24T00:26:31;9.07;;;6.60;;
19891;SDS011;10108;50.142;8.724;2022-07-24T00:28:58;10.23;;;6.55;;
19891;SDS011;10108;50.142;8.724;2022-07-24T00:31:24;11.27;;;6.40;;
19891;SDS011;10108;50.142;8.724;2022-07-24T00:33:50;10.65;;;6.40;;
19891;SDS011;10108;50.142;8.724;2022-07-24T00:36:16;10.35;;;6.25;;
19891;SDS011;10108;50.142;8.724;2022-07-24T00:38:43;8.88;;;6.28;;
19891;SDS011;10108;50.142;8.724;2022-07-24T00:41:09;11.00;;;6.60;;
19891;SDS011;10108;50.142;8.724;2022-07-24T00:43:57;10.40;;;6.60;;
19891;SDS011;10108;50.142;8.724;2022-07-24T00:46:25;11.18;;;6.57;;
19891;SDS011;10108;50.142;8.724;2022-07-24T00:48:51;11.10;;;6.60;;
19891;SDS011;10108;50.142;8.724;2022-07-24T00:51:18;9.98;;;6.18;;
19891;SDS011;10108;50.142;8.724;2022-07-24T00:53:44;9.07;;;6.07;;
19891;SDS011;10108;50.142;8.724;2022-07-24T00:56:10;8.88;;;5.88;;
19891;SDS011;10108;50.142;8.724;2022-07-24T00:58:38;11.60;;;6.63;;
19891;SDS011;10108;50.142;8.724;2022-07-24T01:01:05;13.80;;;6.93;;
19891;SDS011;10108;50.142;8.724;2022-07-24T01:03:31;9.25;;;6.32;;
19891;SDS011;10108;50.142;8.724;2022-07-24T01:05:58;11.60;;;6.65;;
19891;SDS011;10108;50.142;8.724;2022-07-24T01:08:24;10.38;;;6.20;;
19891;SDS011;10108;50.142;8.724;2022-07-24T01:10:51;9.45;;;6.45;;
19891;SDS011;10108;50.142;8.724;2022-07-24T01:13:17;10.32;;;6.38;;
19891;SDS011;10108;50.142;8.724;2022-07-24T01:15:45;11.30;;;6.68;;
19891;SDS011;10108;50.142;8.724;2022-07-24T01:18:12;11.20;;;6.18;;
19891;SDS011;10108;50.142;8.724;2022-07-24T01:20:38;10.07;;;6.05;;
19891;SDS011;10108;50.142;8.724;2022-07-24T01:23:05;11.65;;;6.18;;
19891;SDS011;10108;50.142;8.724;2022-07-24T01:25:31;10.05;;;6.45;;
19891;SDS011;10108;50.142;8.724;2022-07-24T01:27:57;9.07;;;5.97;;
19891;SDS011;10108;50.142;8.724;2022-07-24T01:30:23;11.27;;;6.25;;
19891;SDS011;10108;50.142;8.724;2022-07-24T01:32:50;11.27;;;6.05;;
19891;SDS011;10108;50.142;8.724;2022-07-24T01:35:16;10.35;;;5.97;;
19891;SDS011;10108;50.142;8.724;2022-07-24T01:37:42;9.65;;;6.15;;
19891;SDS011;10108;50.142;8.724;2022-07-24T01:40:08;9.80;;;6.15;;
19891;SDS011;10108;50.142;8.724;2022-07-24T01:42:35;9.75;;;6.20;;
19891;SDS011;10108;50.142;8.724;2022-07-24T01:45:01;9.52;;;5.80;;
19891;SDS011;10108;50.142;8.724;2022-07-24T01:47:28;10.02;;;6.25;;
19891;SDS011;10108;50.142;8.724;2022-07-24T01:49:54;10.05;;;6.07;;
19891;SDS011;10108;50.142;8.724;2022-07-24T01:52:20;10.07;;;6.38;;
19891;SDS011;10108;50.142;8.724;2022-07-24T01:54:51;9.00;;;5.82;;
19891;SDS011;10108;50.142;8.724;2022-07-24T01:57:17;10.27;;;6.30;;
19891;SDS011;10108;50.142;8.724;2022-07-24T01:59:44;9.50;;;5.82;;
19891;SDS011;10108;50.142;8.724;2022-07-24T02:02:10;11.30;;;6.47;;
19891;SDS011;10108;50.142;8.724;2022-07-24T02:04:36;8.73;;;5.80;;
19891;SDS011;10108;50.142;8.724;2022-07-24T02:07:03;10.48;;;6.30;;
19891;SDS011;10108;50.142;8.724;2022-07-24T02:09:29;11.02;;;6.22;;
19891;SDS011;10108;50.142;8.724;2022-07-24T02:11:55;11.25;;;6.32;;
19891;SDS011;10108;50.142;8.724;2022-07-24T02:14:22;9.75;;;5.93;;
19891;SDS011;10108;50.142;8.724;2022-07-24T02:16:48;8.77;;;6.18;;
19891;SDS011;10108;50.142;8.724;2022-07-24T02:19:14;9.50;;;5.97;;
19891;SDS011;10108;50.142;8.724;2022-07-24T02:21:40;9.43;;;6.20;;
19891;SDS011;10108;50.142;8.724;2022-07-24T02:24:06;9.75;;;5.82;;
19891;SDS011;10108;50.142;8.724;2022-07-24T02:26:33;10.00;;;6.05;;
19891;SDS011;10108;50.142;8.724;2022-07-24T02:28:59;9.57;;;5.75;;
19891;SDS011;10108;50.142;8.724;2022-07-24T02:31:26;8.88;;;5.78;;
19891;SDS011;10108;50.142;8.724;2022-07-24T02:33:52;9.30;;;5.68;;
19891;SDS011;10108;50.142;8.724;2022-07-24T02:36:18;12.30;;;6.55;;
19891;SDS011;10108;50.142;8.724;2022-07-24T02:38:44;12.85;;;5.93;;
19891;SDS011;10108;50.142;8.724;2022-07-24T02:41:10;12.20;;;5.93;;
19891;SDS011;10108;50.142;8.724;2022-07-24T02:43:36;9.15;;;5.93;;
19891;SDS011;10108;50.142;8.724;2022-07-24T02:46:02;9.55;;;5.88;;
19891;SDS011;10108;50.142;8.724;2022-07-24T02:48:29;9.98;;;6.03;;
19891;SDS011;10108;50.142;8.724;2022-07-24T02:50:55;8.02;;;5.90;;
19891;SDS011;10108;50.142;8.724;2022-07-24T02:53:21;8.65;;;5.93;;
19891;SDS011;10108;50.142;8.724;2022-07-24T02:55:47;9.85;;;6.00;;
19891;SDS011;10108;50.142;8.724;2022-07-24T02:58:13;11.15;;;6.32;;
19891;SDS011;10108;50.142;8.724;2022-07-24T03:00:40;9.95;;;6.28;;
19891;SDS011;10108;50.142;8.724;2022-07-24T03:03:06;10.60;;;6.07;;
19891;SDS011;10108;50.142;8.724;2022-07-24T03:05:32;9.63;;;5.95;;
19891;SDS011;10108;50.142;8.724;2022-07-24T03:07:58;9.85;;;6.35;;
19891;SDS011;10108;50.142;8.724;2022-07-24T03:10:24;11.25;;;6.70;;
19891;SDS011;10108;50.142;8.724;2022-07-24T03:12:51;9.73;;;6.00;;
19891;SDS011;10108;50.142;8.724;2022-07-24T03:15:17;10.68;;;6.03;;
19891;SDS011;10108;50.142;8.724;2022-07-24T03:17:53;10.75;;;6.63;;
19891;SDS011;10108;50.142;8.724;2022-07-24T03:20:21;9.25;;;6.47;;
19891;SDS011;10108;50.142;8.724;2022-07-24T03:22:49;10.20;;;6.68;;
19891;SDS011;10108;50.142;8.724;2022-07-24T03:25:15;11.43;;;6.28;;
19891;SDS011;10108;50.142;8.724;2022-07-24T03:27:41;11.48;;;6.40;;
19891;SDS011;10108;50.142;8.724;2022-07-24T03:30:08;13.00;;;6.45;;
19891;SDS011;10108;50.142;8.724;2022-07-24T03:32:35;9.40;;;6.43;;
19891;SDS011;10108;50.142;8.724;2022-07-24T03:35:01;9.18;;;5.65;;
19891;SDS011;10108;50.142;8.724;2022-07-24T03:37:28;10.25;;;6.30;;
19891;SDS011;10108;50.142;8.724;2022-07-24T03:39:54;11.73;;;6.47;;
19891;SDS011;10108;50.142;8.724;2022-07-24T03:42:20;8.68;;;6.03;;
19891;SDS011;10108;50.142;8.724;2022-07-24T03:44:47;10.38;;;6.20;;
19891;SDS011;10108;50.142;8.724;2022-07-24T03:47:13;8.88;;;6.03;;
19891;SDS011;10108;50.142;8.724;2022-07-24T03:49:39;9.45;;;6.07;;
19891;SDS011;10108;50.142;8.724;2022-07-24T03:52:06;11.10;;;6.22;;
19891;SDS011;10108;50.142;8.724;2022-07-24T03:54:32;10.15;;;6.40;;
19891;SDS011;10108;50.142;8.724;2022-07-24T03:56:58;14.10;;;6.78;;
19891;SDS011;10108;50.142;8.724;2022-07-24T03:59:24;10.88;;;6.65;;
19891;SDS011;10108;50.142;8.724;2022-07-24T04:01:50;10.18;;;6.13;;
19891;SDS011;10108;50.142;8.724;2022-07-24T04:04:16;10.90;;;5.90;;
19891;SDS011;10108;50.142;8.724;2022-07-24T04:06:42;10.95;;;6.00;;
19891;SDS011;10108;50.142;8.724;2022-07-24T04:09:09;11.55;;;6.10;;
19891;SDS011;10108;50.142;8.724;2022-07-24T04:11:35;11.73;;;6.57;;
19891;SDS011;10108;50.142;8.724;2022-07-24T04:14:01;9.13;;;5.70;;
19891;SDS011;10108;50.142;8.724;2022-07-24T04:16:28;9.30;;;5.85;;
19891;SDS011;10108;50.142;8.724;2022-07-24T04:18:54;8.65;;;6.45;;
19891;SDS011;10108;50.142;8.724;2022-07-24T04:21:20;10.93;;;6.32;;
19891;SDS011;10108;50.142;8.724;2022-07-24T04:23:46;9.48;;;6.22;;
19891;SDS011;10108;50.142;8.724;2022-07-24T04:26:12;8.30;;;5.97;;
19891;SDS011;10108;50.142;8.724;2022-07-24T04:28:38;11.77;;;6.75;;
19891;SDS011;10108;50.142;8.724;2022-07-24T04:31:04;8.52;;;6.60;;
19891;SDS011;10108;50.142;8.724;2022-07-24T04:33:31;10.20;;;6.60;;
19891;SDS011;10108;50.142;8.724;2022-07-24T04:35:57;12.10;;;6.05;;
19891;SDS011;10108;50.142;8.724;2022-07-24T04:38:23;11.98;;;6.82;;
19891;SDS011;10108;50.142;8.724;2022-07-24T04:40:49;11.02;;;6.40;;
19891;SDS011;10108;50.142;8.724;2022-07-24T04:43:15;9.85;;;6.35;;
19891;SDS011;10108;50.142;8.724;2022-07-24T04:45:42;10.57;;;6.57;;
19891;SDS011;10108;50.142;8.724;2022-07-24T04:48:08;11.13;;;6.45;;
19891;SDS011;10108;50.142;8.724;2022-07-24T04:50:34;10.30;;;6.65;;
19891;SDS011;10108;50.142;8.724;2022-07-24T04:53:00;10.00;;;6.40;;
19891;SDS011;10108;50.142;8.724;2022-07-24T04:55:26;8.77;;;6.18;;
19891;SDS011;10108;50.142;8.724;2022-07-24T04:57:53;10.18;;;6.38;;
19891;SDS011;10108;50.142;8.724;2022-07-24T05:00:20;10.05;;;7.05;;
19891;SDS011;10108;50.142;8.724;2022-07-24T05:02:46;9.30;;;6.18;;
19891;SDS011;10108;50.142;8.724;2022-07-24T05:05:12;8.30;;;6.30;;
19891;SDS011;10108;50.142;8.724;2022-07-24T05:07:38;11.43;;;6.32;;
19891;SDS011;10108;50.142;8.724;2022-07-24T05:10:05;9.52;;;6.32;;
19891;SDS011;10108;50.142;8.724;2022-07-24T05:12:31;12.32;;;6.68;;
19891;SDS011;10108;50.142;8.724;2022-07-24T05:14:58;10.07;;;7.05;;
19891;SDS011;10108;50.142;8.724;2022-07-24T05:17:24;10.65;;;6.63;;
19891;SDS011;10108;50.142;8.724;2022-07-24T05:19:50;10.25;;;6.55;;
19891;SDS011;10108;50.142;8.724;2022-07-24T05:22:16;10.20;;;6.65;;
19891;SDS011;10108;50.142;8.724;2022-07-24T05:24:42;9.52;;;6.20;;
19891;SDS011;10108;50.142;8.724;2022-07-24T05:27:08;9.93;;;6.57;;
19891;SDS011;10108;50.142;8.724;2022-07-24T05:29:35;9.63;;;6.65;;
19891;SDS011;10108;50.142;8.724;2022-07-24T05:32:01;9.73;;;6.32;;
19891;SDS011;10108;50.142;8.724;2022-07-24T05:34:27;10.15;;;6.43;;
19891;SDS011;10108;50.142;8.724;2022-07-24T05:36:55;10.82;;;6.25;;
19891;SDS011;10108;50.142;8.724;2022-07-24T05:39:21;11.63;;;6.47;;
19891;SDS011;10108;50.142;8.724;2022-07-24T05:41:47;9.30;;;6.43;;
19891;SDS011;10108;50.142;8.724;2022-07-24T05:44:13;9.98;;;6.78;;
19891;SDS011;10108;50.142;8.724;2022-07-24T05:46:39;12.00;;;6.68;;
19891;SDS011;10108;50.142;8.724;2022-07-24T05:49:05;10.80;;;7.22;;
19891;SDS011;10108;50.142;8.724;2022-07-24T05:51:32;11.25;;;6.47;;
19891;SDS011;10108;50.142;8.724;2022-07-24T05:53:58;12.88;;;7.10;;
19891;SDS011;10108;50.142;8.724;2022-07-24T05:56:24;12.85;;;6.70;;
19891;SDS011;10108;50.142;8.724;2022-07-24T05:58:50;9.85;;;6.38;;
19891;SDS011;10108;50.142;8.724;2022-07-24T06:01:16;9.65;;;6.60;;
19891;SDS011;10108;50.142;8.724;2022-07-24T06:03:43;9.00;;;6.25;;
19891;SDS011;10108;50.142;8.724;2022-07-24T06:06:09;8.95;;;6.60;;
19891;SDS011;10108;50.142;8.724;2022-07-24T06:08:35;9.98;;;6.50;;
19891;SDS011;10108;50.142;8.724;2022-07-24T06:11:01;10.35;;;6.40;;
19891;SDS011;10108;50.142;8.724;2022-07-24T06:13:27;10.52;;;6.35;;
19891;SDS011;10108;50.142;8.724;2022-07-24T06:15:53;9.73;;;6.40;;
19891;SDS011;10108;50.142;8.724;2022-07-24T06:18:19;8.55;;;6.38;;
19891;SDS011;10108;50.142;8.724;2022-07-24T06:20:46;9.07;;;6.35;;
19891;SDS011;10108;50.142;8.724;2022-07-24T06:23:12;8.48;;;5.97;;
19891;SDS011;10108;50.142;8.724;2022-07-24T06:25:38;11.18;;;6.60;;
19891;SDS011;10108;50.142;8.724;2022-07-24T06:28:04;10.50;;;6.75;;
19891;SDS011;10108;50.142;8.724;2022-07-24T06:30:30;9.45;;;6.30;;
19891;SDS011;10108;50.142;8.724;2022-07-24T06:32:57;9.90;;;6.65;;
19891;SDS011;10108;50.142;8.724;2022-07-24T06:35:24;9.23;;;6.47;;
19891;SDS011;10108;50.142;8.724;2022-07-24T06:37:53;11.43;;;6.25;;
19891;SDS011;10108;50.142;8.724;2022-07-24T06:40:20;9.80;;;6.28;;
19891;SDS011;10108;50.142;8.724;2022-07-24T06:42:47;10.50;;;6.13;;
19891;SDS011;10108;50.142;8.724;2022-07-24T06:45:14;9.43;;;6.68;;
19891;SDS011;10108;50.142;8.724;2022-07-24T06:47:40;9.38;;;6.53;;
19891;SDS011;10108;50.142;8.724;2022-07-24T06:50:07;10.25;;;6.65;;
19891;SDS011;10108;50.142;8.724;2022-07-24T06:52:35;10.82;;;6.60;;
19891;SDS011;10108;50.142;8.724;2022-07-24T06:55:02;12.23;;;6.65;;
19891;SDS011;10108;50.142;8.724;2022-07-24T06:57:29;13.20;;;6.47;;
19891;SDS011;10108;50.142;8.724;2022-07-24T06:59:55;9.40;;;6.32;;
19891;SDS011;10108;50.142;8.724;2022-07-24T07:02:21;9.25;;;6.13;;
19891;SDS011;10108;50.142;8.724;2022-07-24T07:04:48;10.65;;;6.47;;
19891;SDS011;10108;50.142;8.724;2022-07-24T07:07:15;10.93;;;6.25;;
19891;SDS011;10108;50.142;8.724;2022-07-24T07:09:42;8.98;;;6.43;;
19891;SDS011;10108;50.142;8.724;2022-07-24T07:12:09;9.95;;;6.75;;
19891;SDS011;10108;50.142;8.724;2022-07-24T07:14:36;8.48;;;6.05;;
19891;SDS011;10108;50.142;8.724;2022-07-24T07:17:02;9.73;;;6.60;;
19891;SDS011;10108;50.142;8.724;2022-07-24T07:19:29;8.80;;;5.97;;
19891;SDS011;10108;50.142;8.724;2022-07-24T07:21:55;10.68;;;6.30;;
19891;SDS011;10108;50.142;8.724;2022-07-24T07:24:23;8.82;;;6.38;;
19891;SDS011;10108;50.142;8.724;2022-07-24T07:26:49;8.77;;;6.20;;
19891;SDS011;10108;50.142;8.724;2022-07-24T07:29:15;11.20;;;6.65;;
19891;SDS011;10108;50.142;8.724;2022-07-24T07:31:42;8.55;;;6.13;;
19891;SDS011;10108;50.142;8.724;2022-07-24T07:34:08;11.40;;;6.32;;
19891;SDS011;10108;50.142;8.724;2022-07-24T07:36:35;8.40;;;6.30;;
19891;SDS011;10108;50.142;8.724;2022-07-24T07:39:01;9.65;;;6.50;;
19891;SDS011;10108;50.142;8.724;2022-07-24T07:41:27;8.45;;;6.43;;
19891;SDS011;10108;50.142;8.724;2022-07-24T07:43:53;10.73;;;6.45;;
19891;SDS011;10108;50.142;8.724;2022-07-24T07:46:20;10.07;;;6.85;;
19891;SDS011;10108;50.142;8.724;2022-07-24T07:48:46;9.70;;;6.40;;
19891;SDS011;10108;50.142;8.724;2022-07-24T07:51:12;8.52;;;6.07;;
19891;SDS011;10108;50.142;8.724;2022-07-24T07:53:38;9.45;;;6.32;;
19891;SDS011;10108;50.142;8.724;2022-07-24T07:56:04;10.05;;;6.00;;
19891;SDS011;10108;50.142;8.724;2022-07-24T07:58:31;10.27;;;6.38;;
19891;SDS011;10108;50.142;8.724;2022-07-24T08:00:57;9.77;;;6.50;;
19891;SDS011;10108;50.142;8.724;2022-07-24T08:03:23;10.85;;;6.70;;
19891;SDS011;10108;50.142;8.724;2022-07-24T08:05:49;10.52;;;6.60;;
19891;SDS011;10108;50.142;8.724;2022-07-24T08:08:15;9.38;;;5.85;;
19891;SDS011;10108;50.142;8.724;2022-07-24T08:10:42;9.32;;;6.22;;
19891;SDS011;10108;50.142;8.724;2022-07-24T08:13:08;11.48;;;6.13;;
19891;SDS011;10108;50.142;8.724;2022-07-24T08:15:34;9.13;;;6.22;;
19891;SDS011;10108;50.142;8.724;2022-07-24T08:18:01;8.95;;;6.30;;
19891;SDS011;10108;50.142;8.724;2022-07-24T08:20:27;10.52;;;6.15;;
19891;SDS011;10108;50.142;8.724;2022-07-24T08:22:53;10.85;;;6.95;;
19891;SDS011;10108;50.142;8.724;2022-07-24T08:25:20;11.43;;;6.28;;
19891;SDS011;10108;50.142;8.724;2022-07-24T08:27:46;9.88;;;6.35;;
19891;SDS011;10108;50.142;8.724;2022-07-24T08:30:13;10.23;;;6.88;;
19891;SDS011;10108;50.142;8.724;2022-07-24T08:32:40;8.55;;;5.65;;
19891;SDS011;10108;50.142;8.724;2022-07-24T08:35:07;8.23;;;5.60;;
19891;SDS011;10108;50.142;8.724;2022-07-24T08:37:36;13.52;;;6.40;;
19891;SDS011;10108;50.142;8.724;2022-07-24T08:40:04;11.90;;;6.57;;
19891;SDS011;10108;50.142;8.724;2022-07-24T08:42:31;9.02;;;6.60;;
19891;SDS011;10108;50.142;8.724;2022-07-24T08:44:57;11.55;;;7.00;;
19891;SDS011;10108;50.142;8.724;2022-07-24T08:47:24;10.95;;;6.45;;
19891;SDS011;10108;50.142;8.724;2022-07-24T08:49:53;10.88;;;6.88;;
19891;SDS011;10108;50.142;8.724;2022-07-24T08:52:23;10.65;;;6.70;;
19891;SDS011;10108;50.142;8.724;2022-07-24T08:54:51;11.10;;;6.30;;
19891;SDS011;10108;50.142;8.724;2022-07-24T08:57:18;9.40;;;5.95;;
19891;SDS011;10108;50.142;8.724;2022-07-24T08:59:44;10.00;;;6.50;;
19891;SDS011;10108;50.142;8.724;2022-07-24T09:02:12;9.50;;;6.50;;
19891;SDS011;10108;50.142;8.724;2022-07-24T09:04:40;9.55;;;6.32;;
19891;SDS011;10108;50.142;8.724;2022-07-24T09:07:11;11.45;;;6.75;;
19891;SDS011;10108;50.142;8.724;2022-07-24T09:09:43;9.82;;;6.82;;
19891;SDS011;10108;50.142;8.724;2022-07-24T09:12:22;10.25;;;6.60;;
19891;SDS011;10108;50.142;8.724;2022-07-24T09:14:49;11.50;;;6.28;;
19891;SDS011;10108;50.142;8.724;2022-07-24T09:17:16;9.40;;;6.32;;
19891;SDS011;10108;50.142;8.724;2022-07-24T09:19:55;9.35;;;6.38;;
19891;SDS011;10108;50.142;8.724;2022-07-24T09:27:31;8.10;;;6.13;;
19891;SDS011;10108;50.142;8.724;2022-07-24T09:29:58;8.70;;;6.60;;
19891;SDS011;10108;50.142;8.724;2022-07-24T09:32:24;8.68;;;6.10;;
19891;SDS011;10108;50.142;8.724;2022-07-24T09:34:51;9.73;;;6.60;;
19891;SDS011;10108;50.142;8.724;2022-07-24T09:37:19;9.82;;;6.75;;
19891;SDS011;10108;50.142;8.724;2022-07-24T09:39:45;9.40;;;6.82;;
19891;SDS011;10108;50.142;8.724;2022-07-24T09:42:12;11.27;;;6.97;;
19891;SDS011;10108;50.142;8.724;2022-07-24T09:44:39;13.10;;;6.20;;
19891;SDS011;10108;50.142;8.724;2022-07-24T09:47:07;11.52;;;6.55;;
19891;SDS011;10108;50.142;8.724;2022-07-24T09:49:35;12.45;;;6.65;;
19891;SDS011;10108;50.142;8.724;2022-07-24T09:54:34;11.55;;;7.00;;
19891;SDS011;10108;50.142;8.724;2022-07-24T09:57:18;14.82;;;7.25;;
19891;SDS011;10108;50.142;8.724;2022-07-24T10:00:04;13.95;;;7.60;;
19891;SDS011;10108;50.142;8.724;2022-07-24T10:02:33;14.82;;;7.38;;
19891;SDS011;10108;50.142;8.724;2022-07-24T10:05:00;14.75;;;7.63;;
19891;SDS011;10108;50.142;8.724;2022-07-24T10:07:28;15.90;;;7.68;;
19891;SDS011;10108;50.142;8.724;2022-07-24T10:09:57;15.48;;;7.43;;
19891;SDS011;10108;50.142;8.724;2022-07-24T10:12:27;17.35;;;7.85;;
19891;SDS011;10108;50.142;8.724;2022-07-24T10:14:56;18.10;;;8.60;;
19891;SDS011;10108;50.142;8.724;2022-07-24T10:17:28;16.20;;;7.88;;
19891;SDS011;10108;50.142;8.724;2022-07-24T10:20:02;13.60;;;7.00;;
19891;SDS011;10108;50.142;8.724;2022-07-24T10:22:35;16.58;;;7.22;;
19891;SDS011;10108;50.142;8.724;2022-07-24T10:25:22;13.13;;;7.28;;
19891;SDS011;10108;50.142;8.724;2022-07-24T10:27:51;8.70;;;5.70;;
19891;SDS011;10108;50.142;8.724;2022-07-24T10:30:23;15.85;;;6.05;;
19891;SDS011;10108;50.142;8.724;2022-07-24T10:32:50;14.77;;;7.53;;
19891;SDS011;10108;50.142;8.724;2022-07-24T10:35:18;12.95;;;6.38;;
19891;SDS011;10108;50.142;8.724;2022-07-24T10:37:59;12.23;;;6.82;;
19891;SDS011;10108;50.142;8.724;2022-07-24T10:43:10;12.57;;;8.27;;
19891;SDS011;10108;50.142;8.724;2022-07-24T10:45:39;14.43;;;6.97;;
19891;SDS011;10108;50.142;8.724;2022-07-24T10:53:26;11.65;;;7.50;;
19891;SDS011;10108;50.142;8.724;2022-07-24T10:58:51;12.02;;;7.97;;
19891;SDS011;10108;50.142;8.724;2022-07-24T11:01:54;12.18;;;6.55;;
19891;SDS011;10108;50.142;8.724;2022-07-24T11:06:45;13.63;;;7.47;;
19891;SDS011;10108;50.142;8.724;2022-07-24T11:09:11;9.77;;;6.95;;
19891;SDS011;10108;50.142;8.724;2022-07-24T11:11:42;11.35;;;7.55;;
19891;SDS011;10108;50.142;8.724;2022-07-24T11:14:18;11.80;;;7.90;;
19891;SDS011;10108;50.142;8.724;2022-07-24T11:16:50;12.80;;;8.00;;
19891;SDS011;10108;50.142;8.724;2022-07-24T11:21:44;14.40;;;7.13;;
19891;SDS011;10108;50.142;8.724;2022-07-24T11:26:47;12.02;;;7.10;;
19891;SDS011;10108;50.142;8.724;2022-07-24T11:31:49;12.30;;;8.05;;
19891;SDS011;10108;50.142;8.724;2022-07-24T11:34:19;13.13;;;8.02;;
19891;SDS011;10108;50.142;8.724;2022-07-24T11:36:47;10.90;;;7.65;;
19891;SDS011;10108;50.142;8.724;2022-07-24T11:39:15;11.38;;;8.07;;
19891;SDS011;10108;50.142;8.724;2022-07-24T11:41:42;14.60;;;7.63;;
19891;SDS011;10108;50.142;8.724;2022-07-24T11:44:13;11.98;;;7.55;;
19891;SDS011;10108;50.142;8.724;2022-07-24T11:46:46;10.95;;;7.07;;
19891;SDS011;10108;50.142;8.724;2022-07-24T11:49:12;15.80;;;8.27;;
19891;SDS011;10108;50.142;8.724;2022-07-24T11:51:43;15.95;;;8.40;;
19891;SDS011;10108;50.142;8.724;2022-07-24T11:54:14;15.95;;;6.55;;
19891;SDS011;10108;50.142;8.724;2022-07-24T11:56:47;14.43;;;6.88;;
19891;SDS011;10108;50.142;8.724;2022-07-24T11:59:29;12.18;;;7.35;;
19891;SDS011;10108;50.142;8.724;2022-07-24T12:02:08;14.68;;;8.75;;
19891;SDS011;10108;50.142;8.724;2022-07-24T12:04:36;15.65;;;7.78;;
19891;SDS011;10108;50.142;8.724;2022-07-24T12:07:05;15.63;;;8.05;;
19891;SDS011;10108;50.142;8.724;2022-07-24T12:09:48;11.63;;;7.47;;
19891;SDS011;10108;50.142;8.724;2022-07-24T12:12:35;13.55;;;7.93;;
19891;SDS011;10108;50.142;8.724;2022-07-24T12:17:33;14.60;;;8.27;;
19891;SDS011;10108;50.142;8.724;2022-07-24T12:20:21;11.60;;;7.57;;
19891;SDS011;10108;50.142;8.724;2022-07-24T12:22:53;12.40;;;7.75;;
19891;SDS011;10108;50.142;8.724;2022-07-24T12:25:20;10.55;;;6.60;;
19891;SDS011;10108;50.142;8.724;2022-07-24T12:27:47;10.38;;;5.90;;
19891;SDS011;10108;50.142;8.724;2022-07-24T12:30:20;9.07;;;5.68;;
19891;SDS011;10108;50.142;8.724;2022-07-24T12:32:55;11.10;;;6.32;;
19891;SDS011;10108;50.142;8.724;2022-07-24T12:35:23;10.40;;;6.88;;
19891;SDS011;10108;50.142;8.724;2022-07-24T12:37:51;11.15;;;6.82;;
19891;SDS011;10108;50.142;8.724;2022-07-24T12:40:22;11.60;;;7.10;;
19891;SDS011;10108;50.142;8.724;2022-07-24T12:42:55;11.07;;;6.47;;
19891;SDS011;10108;50.142;8.724;2022-07-24T12:45:25;10.10;;;6.53;;
19891;SDS011;10108;50.142;8.724;2022-07-24T12:50:37;12.10;;;6.80;;
19891;SDS011;10108;50.142;8.724;2022-07-24T12:53:07;12.38;;;7.30;;
19891;SDS011;10108;50.142;8.724;2022-07-24T12:55:34;14.63;;;8.07;;
19891;SDS011;10108;50.142;8.724;2022-07-24T12:58:02;10.23;;;6.50;;
19891;SDS011;10108;50.142;8.724;2022-07-24T13:00:29;11.77;;;7.15;;
19891;SDS011;10108;50.142;8.724;2022-07-24T13:02:56;18.38;;;6.68;;
19891;SDS011;10108;50.142;8.724;2022-07-24T13:08:08;12.27;;;7.40;;
19891;SDS011;10108;50.142;8.724;2022-07-24T13:10:34;14.73;;;7.50;;
19891;SDS011;10108;50.142;8.724;2022-07-24T13:13:01;12.55;;;7.35;;
19891;SDS011;10108;50.142;8.724;2022-07-24T13:15:29;9.68;;;5.85;;
19891;SDS011;10108;50.142;8.724;2022-07-24T13:17:57;11.82;;;7.32;;
19891;SDS011;10108;50.142;8.724;2022-07-24T13:20:23;10.65;;;7.05;;
19891;SDS011;10108;50.142;8.724;2022-07-24T13:22:49;15.20;;;7.28;;
19891;SDS011;10108;50.142;8.724;2022-07-24T13:25:15;10.57;;;6.40;;
19891;SDS011;10108;50.142;8.724;2022-07-24T13:27:42;15.30;;;6.78;;
19891;SDS011;10108;50.142;8.724;2022-07-24T13:30:08;12.38;;;7.65;;
19891;SDS011;10108;50.142;8.724;2022-07-24T13:32:35;12.98;;;6.93;;
19891;SDS011;10108;50.142;8.724;2022-07-24T13:35:01;15.90;;;7.82;;
19891;SDS011;10108;50.142;8.724;2022-07-24T13:37:27;18.55;;;7.35;;
19891;SDS011;10108;50.142;8.724;2022-07-24T13:39:53;12.75;;;7.90;;
19891;SDS011;10108;50.142;8.724;2022-07-24T13:42:19;13.75;;;8.18;;
19891;SDS011;10108;50.142;8.724;2022-07-24T13:44:46;11.80;;;8.30;;
19891;SDS011;10108;50.142;8.724;2022-07-24T13:47:12;15.07;;;8.40;;
19891;SDS011;10108;50.142;8.724;2022-07-24T13:49:38;16.77;;;8.38;;
19891;SDS011;10108;50.142;8.724;2022-07-24T13:52:04;10.45;;;6.90;;
19891;SDS011;10108;50.142;8.724;2022-07-24T13:54:31;13.60;;;7.10;;
19891;SDS011;10108;50.142;8.724;2022-07-24T13:56:57;14.70;;;6.97;;
19891;SDS011;10108;50.142;8.724;2022-07-24T13:59:23;13.25;;;7.25;;
19891;SDS011;10108;50.142;8.724;2022-07-24T14:01:49;17.10;;;7.22;;
19891;SDS011;10108;50.142;8.724;2022-07-24T14:04:16;15.30;;;6.70;;
19891;SDS011;10108;50.142;8.724;2022-07-24T14:06:42;16.27;;;7.38;;
19891;SDS011;10108;50.142;8.724;2022-07-24T14:09:08;15.18;;;8.07;;
19891;SDS011;10108;50.142;8.724;2022-07-24T14:11:34;15.65;;;8.07;;
19891;SDS011;10108;50.142;8.724;2022-07-24T14:14:01;11.93;;;7.80;;
19891;SDS011;10108;50.142;8.724;2022-07-24T14:16:27;12.65;;;8.15;;
19891;SDS011;10108;50.142;8.724;2022-07-24T14:18:53;14.23;;;7.25;;
19891;SDS011;10108;50.142;8.724;2022-07-24T14:21:19;13.13;;;7.20;;
19891;SDS011;10108;50.142;8.724;2022-07-24T14:23:45;17.63;;;8.48;;
19891;SDS011;10108;50.142;8.724;2022-07-24T14:26:12;11.77;;;7.07;;
19891;SDS011;10108;50.142;8.724;2022-07-24T14:28:38;12.98;;;8.38;;
19891;SDS011;10108;50.142;8.724;2022-07-24T14:31:04;12.80;;;7.50;;
19891;SDS011;10108;50.142;8.724;2022-07-24T14:33:30;13.00;;;8.27;;
19891;SDS011;10108;50.142;8.724;2022-07-24T14:35:56;11.90;;;8.07;;
19891;SDS011;10108;50.142;8.724;2022-07-24T14:38:23;13.27;;;8.10;;
19891;SDS011;10108;50.142;8.724;2022-07-24T14:40:49;12.13;;;7.80;;
19891;SDS011;10108;50.142;8.724;2022-07-24T14:43:15;11.83;;;8.07;;
19891;SDS011;10108;50.142;8.724;2022-07-24T14:45:41;14.23;;;7.70;;
19891;SDS011;10108;50.142;8.724;2022-07-24T14:48:07;12.40;;;8.07;;
19891;SDS011;10108;50.142;8.724;2022-07-24T14:50:33;11.27;;;8.55;;
19891;SDS011;10108;50.142;8.724;2022-07-24T14:52:59;15.60;;;8.40;;
19891;SDS011;10108;50.142;8.724;2022-07-24T14:55:26;11.80;;;8.20;;
19891;SDS011;10108;50.142;8.724;2022-07-24T14:57:52;14.68;;;8.88;;
19891;SDS011;10108;50.142;8.724;2022-07-24T15:00:18;13.55;;;8.25;;
19891;SDS011;10108;50.142;8.724;2022-07-24T15:02:44;11.50;;;7.90;;
19891;SDS011;10108;50.142;8.724;2022-07-24T15:05:11;16.90;;;8.95;;
19891;SDS011;10108;50.142;8.724;2022-07-24T15:07:37;14.60;;;8.50;;
19891;SDS011;10108;50.142;8.724;2022-07-24T15:10:03;14.95;;;7.35;;
19891;SDS011;10108;50.142;8.724;2022-07-24T15:12:29;16.90;;;9.30;;
19891;SDS011;10108;50.142;8.724;2022-07-24T15:14:56;27.10;;;12.00;;
19891;SDS011;10108;50.142;8.724;2022-07-24T15:17:22;26.75;;;12.27;;